createdAt,value
2023-05-10T00:02:52.679Z,-18629.00
2023-05-10T00:07:53.542Z,-18631.00
2023-05-10T00:12:54.341Z,-18631.00
2023-05-10T00:17:55.310Z,-18631.00
2023-05-10T00:22:56.182Z,-18629.00
2023-05-10T00:27:57.394Z,-18629.00
2023-05-10T00:32:58.280Z,-18629.00
2023-05-10T00:37:59.154Z,-18628.00
2023-05-10T00:43:01.621Z,-18630.00
2023-05-10T00:48:03.958Z,-18628.00
2023-05-10T00:53:04.908Z,-18625.00
2023-05-10T00:58:06.260Z,-18628.00
2023-05-10T01:03:07.165Z,-18627.00
2023-05-10T01:08:08.862Z,-18626.00
2023-05-10T01:13:10.159Z,-18626.00
2023-05-10T01:18:11.083Z,-18626.00
2023-05-10T01:23:36.052Z,-18624.00
2023-05-10T01:29:46.098Z,-18624.00
2023-05-10T01:35:03.363Z,-18623.00
2023-05-10T01:41:59.269Z,-18626.00
2023-05-10T01:47:17.371Z,-18627.00
2023-05-10T01:52:22.680Z,-18627.00
2023-05-10T01:57:28.095Z,-18628.00
2023-05-10T02:02:33.716Z,-18627.00
2023-05-10T02:07:36.311Z,-18628.00
2023-05-10T02:12:41.920Z,-18628.00
2023-05-10T02:17:43.564Z,-18626.00
2023-05-10T02:22:47.342Z,-18623.00
2023-05-10T02:27:49.182Z,-18624.00
2023-05-10T02:32:51.873Z,-18623.00
2023-05-10T02:37:53.766Z,-18621.00
2023-05-10T02:42:56.690Z,-18620.00
2023-05-10T02:47:58.595Z,-18620.00
2023-05-10T02:53:09.950Z,-18622.00
2023-05-10T02:58:11.268Z,-18622.00
2023-05-10T03:03:12.793Z,-18622.00
2023-05-10T03:08:13.797Z,-18621.00
2023-05-10T03:13:36.551Z,-18621.00
2023-05-10T03:18:44.588Z,-18624.00
2023-05-10T03:23:53.909Z,-18623.00
2023-05-10T03:28:55.720Z,-18622.00
2023-05-10T03:33:56.662Z,-18619.00
2023-05-10T03:39:00.309Z,-18620.00
2023-05-10T03:44:01.818Z,-18620.00
2023-05-10T03:49:03.238Z,-18617.00
2023-05-10T03:54:04.216Z,-18618.00
2023-05-10T03:59:07.652Z,-18620.00
2023-05-10T04:04:08.563Z,-18617.00
2023-05-10T04:09:09.846Z,-18619.00
2023-05-10T04:14:10.614Z,-18618.00
2023-05-10T04:19:11.414Z,-18615.00
2023-05-10T04:24:13.433Z,-18612.00
2023-05-10T04:29:14.412Z,-18610.00
2023-05-10T04:34:15.168Z,-18611.00
2023-05-10T04:39:15.933Z,-18611.00
2023-05-10T04:44:16.725Z,-18609.00
2023-05-10T04:49:18.078Z,-18611.00
2023-05-10T04:54:18.966Z,-18611.00
2023-05-10T04:59:19.757Z,-18611.00
2023-05-10T05:04:20.574Z,-18611.00
2023-05-10T05:09:21.684Z,-18611.00
2023-05-10T05:14:22.480Z,-18614.00
2023-05-10T05:19:23.307Z,-18611.00
2023-05-10T05:24:24.246Z,-18614.00
2023-05-10T05:29:24.989Z,-18615.00
2023-05-10T05:34:26.216Z,-18617.00
2023-05-10T05:39:26.948Z,-18619.00
2023-05-10T05:44:29.054Z,-18618.00
2023-05-10T05:49:30.212Z,-18618.00
2023-05-10T05:54:31.783Z,-18620.00
2023-05-10T05:59:32.514Z,-18622.00
2023-05-10T06:04:33.521Z,-18620.00
2023-05-10T06:09:34.722Z,-18620.00
2023-05-10T06:14:35.553Z,-18619.00
2023-05-10T06:19:36.999Z,-18626.00
2023-05-10T06:24:38.041Z,-18628.00
2023-05-10T06:29:39.363Z,-18630.00
2023-05-10T06:34:40.326Z,-18639.00
2023-05-10T06:39:41.134Z,-18640.00
2023-05-10T06:44:42.128Z,-18641.00
2023-05-10T06:49:42.885Z,-18643.00
2023-05-10T06:54:44.433Z,-18643.00
2023-05-10T06:59:45.275Z,-18646.00
2023-05-10T07:04:47.559Z,-18665.00
2023-05-10T07:09:50.073Z,-18671.00
2023-05-10T07:14:51.275Z,-18667.00
2023-05-10T07:19:52.094Z,-18664.00
2023-05-10T07:24:53.161Z,-18658.00
2023-05-10T07:29:54.876Z,-18654.00
2023-05-10T07:34:55.664Z,-18656.00
2023-05-10T07:39:56.791Z,-18654.00
2023-05-10T07:44:58.042Z,-18654.00
2023-05-10T07:49:58.981Z,-18657.00
2023-05-10T07:55:00.110Z,-18666.00
2023-05-10T08:00:01.237Z,-18672.00
2023-05-10T08:05:02.078Z,-18675.00
2023-05-10T08:10:03.549Z,-18676.00
2023-05-10T08:15:05.256Z,-18669.00
2023-05-10T08:20:08.109Z,-18663.00
2023-05-10T08:25:09.101Z,-18660.00
2023-05-10T08:30:10.245Z,-18660.00
2023-05-10T08:35:11.122Z,-18658.00
2023-05-10T08:40:12.109Z,-18663.00
2023-05-10T08:45:15.436Z,-18672.00
2023-05-10T08:50:20.438Z,-18684.00
2023-05-10T08:55:23.510Z,-18687.00
2023-05-10T09:00:24.943Z,-18700.00
2023-05-10T09:05:26.595Z,-18706.00
2023-05-10T09:10:28.232Z,-18722.00
2023-05-10T09:15:29.025Z,-18736.00
2023-05-10T09:20:30.298Z,-18730.00
2023-05-10T09:25:33.800Z,-18731.00
2023-05-10T09:30:35.267Z,-18718.00
2023-05-10T09:35:36.351Z,-18708.00
2023-05-10T09:40:37.139Z,-18695.00
2023-05-10T09:45:39.133Z,-18701.00
2023-05-10T09:50:40.514Z,-18710.00
2023-05-10T09:55:46.808Z,-18720.00
2023-05-10T10:00:47.871Z,-18724.00
2023-05-10T10:05:49.278Z,-18712.00
2023-05-10T10:10:53.005Z,-18703.00
2023-05-10T10:15:54.936Z,-18718.00
2023-05-10T10:20:56.622Z,-18707.00
2023-05-10T10:25:58.633Z,-18707.00
2023-05-10T10:31:15.991Z,-18718.00
2023-05-10T10:36:16.879Z,-18726.00
2023-05-10T10:41:37.698Z,-18731.00
2023-05-10T10:47:01.028Z,-18740.00
2023-05-10T10:59:10.164Z,-18739.00
2023-05-10T11:04:20.661Z,-18740.00
2023-05-10T11:09:25.049Z,-18742.00
2023-05-10T11:14:26.079Z,-18725.00
2023-05-10T11:19:29.755Z,-18714.00
2023-05-10T11:24:30.530Z,-18695.00
2023-05-10T11:29:31.412Z,-18682.00
2023-05-10T11:34:35.680Z,-18673.00
2023-05-10T11:39:36.479Z,-18671.00
2023-05-10T11:44:37.297Z,-18677.00
2023-05-10T11:49:38.104Z,-18686.00
2023-05-10T11:54:46.494Z,-18694.00
2023-05-10T11:59:47.499Z,-18701.00
2023-05-10T12:04:49.654Z,-18699.00
2023-05-10T12:10:19.821Z,-18701.00
2023-05-10T12:15:23.065Z,-18707.00
2023-05-10T12:20:24.654Z,-18711.00
2023-05-10T12:25:31.232Z,-18704.00
2023-05-10T12:30:34.255Z,-18705.00
2023-05-10T12:35:47.875Z,-18709.00
2023-05-10T12:40:48.658Z,-18710.00
2023-05-10T12:45:49.642Z,-18719.00
2023-05-10T12:50:50.492Z,-18734.00
2023-05-10T12:55:51.379Z,-18742.00
2023-05-10T13:00:52.574Z,-18757.00
2023-05-10T13:05:53.609Z,-18770.00
2023-05-10T13:10:54.466Z,-18790.00
2023-05-10T13:15:55.442Z,-18788.00
2023-05-10T13:20:56.276Z,-18807.00
2023-05-10T13:25:57.085Z,-18801.00
2023-05-10T13:30:57.893Z,-18789.00
2023-05-10T13:35:59.135Z,-18789.00
2023-05-10T13:41:00.153Z,-18777.00
2023-05-10T13:46:01.575Z,-18778.00
2023-05-10T13:51:02.359Z,-18776.00
2023-05-10T13:56:03.398Z,-18773.00
2023-05-10T14:01:05.070Z,-18767.00
2023-05-10T14:06:07.629Z,-18761.00
2023-05-10T14:11:08.539Z,-18754.00
2023-05-10T14:16:09.379Z,-18760.00
2023-05-10T14:21:10.203Z,-18769.00
2023-05-10T14:26:11.086Z,-18796.00
2023-05-10T14:31:11.849Z,-18803.00
2023-05-10T14:36:13.945Z,-18787.00
2023-05-10T14:41:17.628Z,-18783.00
2023-05-10T14:46:18.571Z,-18773.00
2023-05-10T14:51:21.987Z,-18764.00
2023-05-10T14:56:22.879Z,-18766.00
2023-05-10T15:01:23.826Z,-18768.00
2023-05-10T15:06:32.091Z,-18769.00
2023-05-10T15:11:33.164Z,-18774.00
2023-05-10T15:16:36.043Z,-18790.00
2023-05-10T15:21:39.067Z,-18790.00
2023-05-10T15:26:40.664Z,-18794.00
2023-05-10T15:31:41.507Z,-18800.00
2023-05-10T15:36:42.413Z,-18807.00
2023-05-10T15:41:43.781Z,-18808.00
2023-05-10T15:46:44.886Z,-18800.00
2023-05-10T15:51:45.819Z,-18784.00
2023-05-10T15:56:46.577Z,-18781.00
2023-05-10T16:01:47.790Z,-18780.00
2023-05-10T16:06:48.814Z,-18787.00
2023-05-10T16:11:49.731Z,-18795.00
2023-05-10T16:16:50.636Z,-18790.00
2023-05-10T16:21:51.562Z,-18782.00
2023-05-10T16:26:52.574Z,-18782.00
2023-05-10T16:31:53.857Z,-18776.00
2023-05-10T16:36:54.838Z,-18782.00
2023-05-10T16:41:55.909Z,-18779.00
2023-05-10T16:46:56.680Z,-18780.00
2023-05-10T16:51:57.469Z,-18779.00
2023-05-10T16:56:58.239Z,-18776.00
2023-05-10T17:01:59.080Z,-18776.00
2023-05-10T17:06:59.970Z,-18767.00
2023-05-10T17:12:02.549Z,-18760.00
2023-05-10T17:17:03.824Z,-18758.00
2023-05-10T17:22:04.665Z,-18754.00
2023-05-10T17:27:06.126Z,-18753.00
2023-05-10T17:32:08.518Z,-18751.00
2023-05-10T17:37:09.538Z,-18756.00
2023-05-10T17:42:11.732Z,-18752.00
2023-05-10T17:47:12.664Z,-18749.00
2023-05-10T17:52:13.586Z,-18747.00
2023-05-10T17:57:14.452Z,-18748.00
2023-05-10T18:02:15.269Z,-18743.00
2023-05-10T18:07:16.216Z,-18743.00
2023-05-10T18:12:16.978Z,-18741.00
2023-05-10T18:17:17.795Z,-18738.00
2023-05-10T18:22:20.987Z,-18741.00
2023-05-10T18:27:22.011Z,-18743.00
2023-05-10T18:32:23.682Z,-18736.00
2023-05-10T18:37:24.765Z,-18725.00
2023-05-10T18:42:26.251Z,-18722.00
2023-05-10T18:47:27.141Z,-18719.00
2023-05-10T18:52:28.168Z,-18716.00
2023-05-10T18:57:28.919Z,-18715.00
2023-05-10T19:02:29.846Z,-18713.00
2023-05-10T19:07:31.007Z,-18709.00
2023-05-10T19:12:32.169Z,-18703.00
2023-05-10T19:17:35.930Z,-18697.00
2023-05-10T19:22:51.480Z,-18686.00
2023-05-10T19:27:59.004Z,-18680.00
2023-05-10T19:33:04.434Z,-18675.00
2023-05-10T19:38:05.889Z,-18672.00
2023-05-10T19:43:07.131Z,-18669.00
2023-05-10T19:48:08.315Z,-18666.00
2023-05-10T19:53:09.191Z,-18662.00
2023-05-10T19:58:10.033Z,-18657.00
2023-05-10T20:03:10.939Z,-18652.00
2023-05-10T20:08:12.012Z,-18651.00
2023-05-10T20:13:12.810Z,-18652.00
2023-05-10T20:18:14.139Z,-18653.00
2023-05-10T20:23:15.769Z,-18647.00
2023-05-10T20:28:21.162Z,-18644.00
2023-05-10T20:33:22.167Z,-18644.00
2023-05-10T20:38:23.152Z,-18639.00
2023-05-10T20:43:23.996Z,-18635.00
2023-05-10T20:48:24.930Z,-18632.00
2023-05-10T20:53:25.722Z,-18634.00
2023-05-10T20:58:26.938Z,-18626.00
2023-05-10T21:03:27.722Z,-18625.00
2023-05-10T21:08:28.656Z,-18628.00
2023-05-10T21:13:29.492Z,-18628.00
2023-05-10T21:18:30.330Z,-18626.00
2023-05-10T21:23:33.837Z,-18627.00
2023-05-10T21:28:35.317Z,-18628.00
2023-05-10T21:33:36.410Z,-18625.00
2023-05-10T21:38:37.393Z,-18624.00
2023-05-10T21:43:38.161Z,-18622.00
2023-05-10T21:48:39.096Z,-18620.00
2023-05-10T21:53:39.924Z,-18620.00
2023-05-10T21:58:41.063Z,-18620.00
2023-05-10T22:03:41.823Z,-18617.00
2023-05-10T22:08:43.228Z,-18616.00
2023-05-10T22:13:43.987Z,-18609.00
2023-05-10T22:18:44.876Z,-18610.00
2023-05-10T22:23:45.628Z,-18609.00
2023-05-10T22:28:46.548Z,-18604.00
2023-05-10T22:33:47.752Z,-18605.00
2023-05-10T22:38:48.688Z,-18603.00
2023-05-10T22:43:49.578Z,-18603.00
2023-05-10T22:48:50.550Z,-18600.00
2023-05-10T22:53:51.648Z,-18602.00
2023-05-10T22:58:52.535Z,-18602.00
2023-05-10T23:03:53.304Z,-18600.00
2023-05-10T23:08:54.698Z,-18600.00
2023-05-10T23:13:55.459Z,-18600.00
2023-05-10T23:18:56.311Z,-18599.00
2023-05-10T23:23:57.151Z,-18598.00
2023-05-10T23:28:59.409Z,-18591.00
2023-05-10T23:34:00.129Z,-18589.00
2023-05-10T23:39:01.426Z,-18587.00
2023-05-10T23:44:02.154Z,-18588.00
2023-05-10T23:49:03.040Z,-18584.00
2023-05-10T23:54:03.898Z,-18588.00
2023-05-10T23:59:05.378Z,-18587.00
